createdAt,value
2023-04-30T04:48:03.345Z,5.30
2023-04-30T04:53:11.366Z,5.32
2023-04-30T04:55:48.239Z,4.90
2023-04-30T04:58:28.722Z,5.60
2023-04-30T05:01:06.349Z,5.20
2023-04-30T05:03:37.318Z,5.47
2023-04-30T05:06:08.194Z,4.80
2023-04-30T05:08:36.347Z,5.50
2023-04-30T05:11:03.432Z,7.03
2023-04-30T05:13:34.999Z,7.22
2023-04-30T05:16:02.084Z,6.53
2023-04-30T05:18:29.215Z,7.32
2023-04-30T05:20:58.543Z,6.75
2023-04-30T05:23:25.901Z,9.00
2023-04-30T05:25:53.825Z,7.38
2023-04-30T05:28:20.972Z,7.30
2023-04-30T05:31:11.987Z,7.43
2023-04-30T05:33:46.701Z,6.60
2023-04-30T05:36:19.979Z,7.28
2023-04-30T05:38:56.234Z,7.70
2023-04-30T05:41:40.704Z,6.30
2023-04-30T05:44:07.474Z,6.22
2023-04-30T05:46:35.707Z,7.80
2023-04-30T05:49:03.171Z,8.80
2023-04-30T05:51:30.355Z,8.15
2023-04-30T05:53:57.803Z,7.65
2023-04-30T05:56:25.338Z,8.00
2023-04-30T05:58:52.740Z,8.30
2023-04-30T06:01:21.081Z,8.00
2023-04-30T06:03:47.943Z,8.55
2023-04-30T06:06:15.395Z,8.43
2023-04-30T06:08:44.847Z,8.80
2023-04-30T06:11:13.207Z,8.35
2023-04-30T06:13:40.379Z,7.43
2023-04-30T06:16:08.517Z,8.52
2023-04-30T06:18:38.349Z,8.07
2023-04-30T06:32:11.138Z,6.43
2023-04-30T06:34:40.377Z,6.68
2023-04-30T06:37:07.207Z,6.65
2023-04-30T06:39:36.641Z,5.97
2023-04-30T06:42:04.101Z,5.97
2023-04-30T06:44:33.360Z,6.80
2023-04-30T06:47:00.404Z,6.95
2023-04-30T06:49:27.043Z,6.05
2023-04-30T06:51:58.637Z,6.85
2023-04-30T06:54:28.083Z,5.85
2023-04-30T06:56:57.283Z,6.28
2023-04-30T06:59:24.196Z,6.38
2023-04-30T07:01:51.187Z,6.20
2023-04-30T07:04:17.905Z,5.75
2023-04-30T07:06:44.908Z,5.40
2023-04-30T07:09:13.076Z,5.30
2023-04-30T07:11:40.266Z,5.53
2023-04-30T07:14:06.992Z,5.22
2023-04-30T07:16:34.077Z,5.10
2023-04-30T07:19:01.091Z,4.95
2023-04-30T07:21:28.085Z,5.60
2023-04-30T07:23:55.261Z,4.93
2023-04-30T07:26:25.081Z,4.95
2023-04-30T07:28:51.914Z,5.00
2023-04-30T07:31:19.494Z,5.97
2023-04-30T07:33:46.432Z,5.90
2023-04-30T07:36:13.227Z,5.00
2023-04-30T07:38:40.428Z,5.40
2023-04-30T07:41:08.292Z,5.88
2023-04-30T07:43:36.156Z,5.40
2023-04-30T07:46:04.376Z,4.90
2023-04-30T07:48:31.366Z,5.00
2023-04-30T07:50:58.122Z,5.10
2023-04-30T07:53:25.272Z,5.10
2023-04-30T07:55:52.022Z,4.45
2023-04-30T07:58:19.030Z,4.40
2023-04-30T08:00:46.121Z,4.90
2023-04-30T08:03:13.021Z,4.65
2023-04-30T08:05:41.318Z,4.57
2023-04-30T08:08:08.635Z,4.85
2023-04-30T08:10:37.100Z,5.10
2023-04-30T08:13:04.918Z,4.65
2023-04-30T08:15:33.927Z,5.18
2023-04-30T08:18:03.199Z,4.60
2023-04-30T08:20:30.144Z,4.80
2023-04-30T08:22:57.268Z,4.05
2023-04-30T08:25:24.149Z,4.65
2023-04-30T08:27:50.971Z,4.57
2023-04-30T08:30:18.063Z,4.18
2023-04-30T08:32:44.917Z,4.18
2023-04-30T08:35:14.370Z,3.65
2023-04-30T08:37:41.902Z,3.95
2023-04-30T08:40:51.140Z,3.78
2023-04-30T08:43:20.478Z,3.55
2023-04-30T08:45:49.145Z,3.80
2023-04-30T08:48:17.159Z,3.80
2023-04-30T08:50:44.303Z,3.40
2023-04-30T08:53:13.334Z,3.35
2023-04-30T08:55:41.646Z,3.30
2023-04-30T08:58:10.761Z,3.90
2023-04-30T09:00:42.197Z,3.17
2023-04-30T09:03:09.405Z,3.05
2023-04-30T09:05:38.904Z,3.35
2023-04-30T09:08:07.236Z,3.10
2023-04-30T09:10:34.892Z,2.72
2023-04-30T09:13:04.837Z,3.00
2023-04-30T09:15:33.393Z,3.45
2023-04-30T09:18:26.907Z,3.20
2023-04-30T09:20:56.961Z,3.25
2023-04-30T09:23:24.654Z,3.15
2023-04-30T09:25:51.634Z,3.15
2023-04-30T09:28:19.415Z,3.20
2023-04-30T09:30:46.931Z,2.92
2023-04-30T09:33:13.975Z,3.00
2023-04-30T09:35:44.195Z,2.67
2023-04-30T09:38:32.232Z,2.80
2023-04-30T09:41:01.315Z,2.72
2023-04-30T09:43:29.497Z,3.22
2023-04-30T09:46:00.502Z,2.65
2023-04-30T09:48:31.702Z,3.40
2023-04-30T09:50:58.520Z,3.10
2023-04-30T09:53:25.388Z,3.05
2023-04-30T09:55:52.578Z,2.72
2023-04-30T09:58:20.119Z,2.75
2023-04-30T10:00:49.733Z,2.63
2023-04-30T10:03:17.375Z,2.80
2023-04-30T10:05:49.052Z,2.75
2023-04-30T10:08:31.364Z,2.35
2023-04-30T10:11:06.169Z,2.42
2023-04-30T10:13:41.384Z,2.88
2023-04-30T10:16:24.637Z,2.67
2023-04-30T10:18:54.509Z,2.35
2023-04-30T10:21:23.307Z,2.20
2023-04-30T10:23:52.166Z,2.08
2023-04-30T10:26:19.618Z,1.98
2023-04-30T10:28:50.930Z,2.40
2023-04-30T10:31:19.584Z,2.08
2023-04-30T10:34:10.921Z,1.90
2023-04-30T10:36:44.743Z,2.00
2023-04-30T10:39:13.210Z,2.30
2023-04-30T10:41:40.739Z,2.38
2023-04-30T10:44:08.364Z,2.50
2023-04-30T10:46:37.185Z,2.28
2023-04-30T10:49:04.389Z,2.83
2023-04-30T10:52:00.907Z,3.10
2023-04-30T10:54:29.731Z,2.63
2023-04-30T10:57:20.407Z,2.80
2023-04-30T11:00:15.147Z,2.55
2023-04-30T11:02:49.909Z,2.47
2023-04-30T11:05:19.859Z,2.70
2023-04-30T11:07:58.175Z,3.10
2023-04-30T11:10:27.659Z,2.60
2023-04-30T11:13:14.844Z,2.97
2023-04-30T11:15:42.807Z,2.35
2023-04-30T11:18:10.185Z,2.25
2023-04-30T11:20:44.467Z,2.83
2023-04-30T11:23:19.532Z,2.20
2023-04-30T11:25:49.079Z,1.90
2023-04-30T11:28:25.263Z,1.80
2023-04-30T11:30:54.101Z,2.25
2023-04-30T11:33:26.497Z,2.25
2023-04-30T11:35:56.273Z,2.20
2023-04-30T11:38:28.609Z,1.90
2023-04-30T11:40:56.595Z,1.63
2023-04-30T11:43:28.552Z,1.90
2023-04-30T11:46:11.267Z,2.50
2023-04-30T11:48:44.063Z,2.80
2023-04-30T11:51:25.129Z,2.90
2023-04-30T11:53:53.753Z,2.90
2023-04-30T11:56:22.322Z,3.22
2023-04-30T11:58:50.566Z,3.30
2023-04-30T12:01:18.562Z,3.55
2023-04-30T12:03:47.687Z,2.53
2023-04-30T12:06:25.764Z,4.38
2023-04-30T12:08:55.297Z,2.70
2023-04-30T12:11:25.431Z,4.10
2023-04-30T12:13:54.899Z,2.30
2023-04-30T12:16:21.890Z,3.05
2023-04-30T12:18:52.451Z,2.83
2023-04-30T12:21:21.280Z,2.28
2023-04-30T12:23:48.129Z,1.90
2023-04-30T12:26:18.074Z,1.90
2023-04-30T12:28:48.893Z,1.88
2023-04-30T12:31:18.307Z,1.77
2023-04-30T12:33:45.044Z,1.70
2023-04-30T12:36:15.486Z,1.58
2023-04-30T12:38:45.468Z,1.48
2023-04-30T12:41:21.556Z,1.80
2023-04-30T12:43:49.262Z,1.52
2023-04-30T12:46:27.960Z,1.67
2023-04-30T12:48:55.120Z,1.85
2023-04-30T12:51:22.019Z,1.77
2023-04-30T12:53:51.937Z,1.70
2023-04-30T12:56:19.835Z,1.83
2023-04-30T12:58:50.056Z,2.13
2023-04-30T13:01:22.265Z,2.20
2023-04-30T13:03:49.093Z,2.28
2023-04-30T13:06:16.665Z,2.30
2023-04-30T13:08:57.834Z,2.80
2023-04-30T13:11:39.214Z,2.65
2023-04-30T13:14:09.774Z,2.47
2023-04-30T13:16:38.672Z,2.85
2023-04-30T13:19:06.971Z,2.72
2023-04-30T13:21:34.130Z,2.50
2023-04-30T13:24:03.888Z,2.75
2023-04-30T13:26:30.815Z,2.30
2023-04-30T13:28:57.699Z,2.40
2023-04-30T13:31:24.593Z,2.42
2023-04-30T13:33:56.553Z,2.45
2023-04-30T13:36:24.438Z,2.85
2023-04-30T13:38:57.171Z,2.80
2023-04-30T13:41:26.221Z,2.83
2023-04-30T13:43:53.168Z,2.50
2023-04-30T13:46:21.877Z,2.47
2023-04-30T13:49:00.483Z,2.55
2023-04-30T13:51:30.179Z,2.60
2023-04-30T13:53:57.113Z,2.60
2023-04-30T13:56:24.736Z,2.50
2023-04-30T13:58:51.518Z,2.80
2023-04-30T14:01:18.488Z,2.42
2023-04-30T14:03:46.716Z,2.85
2023-04-30T14:06:15.431Z,2.90
2023-04-30T14:08:50.124Z,2.80
2023-04-30T14:11:18.328Z,2.67
2023-04-30T14:13:49.758Z,2.75
2023-04-30T14:16:16.745Z,3.03
2023-04-30T14:24:13.166Z,2.63
2023-04-30T14:26:43.320Z,2.85
2023-04-30T14:29:13.888Z,3.47
2023-04-30T14:31:41.130Z,3.33
2023-04-30T14:34:11.102Z,3.40
2023-04-30T14:36:38.498Z,2.90
2023-04-30T14:39:05.333Z,2.78
2023-04-30T14:41:38.603Z,2.90
2023-04-30T14:44:05.708Z,2.83
2023-04-30T14:46:33.740Z,2.78
2023-04-30T14:49:01.792Z,2.65
2023-04-30T14:51:28.799Z,3.38
2023-04-30T14:53:55.883Z,2.90
2023-04-30T14:56:24.144Z,2.75
2023-04-30T14:58:51.144Z,2.88
2023-04-30T15:01:18.697Z,2.80
2023-04-30T15:03:46.071Z,2.85
2023-04-30T15:06:14.029Z,2.50
2023-04-30T15:08:40.975Z,2.70
2023-04-30T15:11:09.853Z,2.50
2023-04-30T15:13:40.235Z,2.50
2023-04-30T15:16:07.442Z,3.00
2023-04-30T15:18:35.293Z,3.25
2023-04-30T15:21:04.916Z,3.05
2023-04-30T15:23:32.108Z,2.83
2023-04-30T15:25:58.890Z,2.60
2023-04-30T15:28:25.731Z,2.97
2023-04-30T15:30:52.874Z,2.45
2023-04-30T15:33:20.098Z,2.42
2023-04-30T15:35:48.200Z,2.40
2023-04-30T15:38:15.136Z,2.63
2023-04-30T15:40:41.922Z,2.55
2023-04-30T15:43:08.633Z,2.38
2023-04-30T15:45:35.903Z,2.42
2023-04-30T15:48:02.807Z,2.40
2023-04-30T15:50:30.039Z,2.67
2023-04-30T15:52:57.156Z,2.45
2023-04-30T15:55:24.448Z,2.38
2023-04-30T15:57:51.480Z,2.40
2023-04-30T16:00:18.789Z,2.25
2023-04-30T16:02:45.557Z,2.45
2023-04-30T16:05:12.510Z,2.10
2023-04-30T16:07:41.306Z,1.88
2023-04-30T16:10:10.444Z,2.30
2023-04-30T16:12:37.681Z,1.90
2023-04-30T16:15:06.193Z,2.67
2023-04-30T16:17:32.938Z,2.20
2023-04-30T16:20:01.142Z,2.47
2023-04-30T16:22:28.552Z,2.13
2023-04-30T16:24:55.367Z,2.38
2023-04-30T16:27:22.300Z,2.40
2023-04-30T16:29:49.328Z,2.47
2023-04-30T16:32:16.287Z,2.45
2023-04-30T16:34:43.271Z,1.67
2023-04-30T16:37:10.273Z,1.77
2023-04-30T16:39:37.000Z,2.30
2023-04-30T16:42:03.855Z,1.77
2023-04-30T16:44:30.999Z,1.63
2023-04-30T16:46:59.661Z,1.70
2023-04-30T16:49:26.668Z,2.08
2023-04-30T16:51:53.899Z,1.65
2023-04-30T16:54:20.629Z,2.10
2023-04-30T16:56:47.580Z,1.83
2023-04-30T16:59:14.371Z,1.55
2023-04-30T17:01:41.620Z,1.80
2023-04-30T17:04:08.513Z,2.30
2023-04-30T17:06:35.634Z,2.50
2023-04-30T17:09:02.476Z,2.17
2023-04-30T17:11:29.255Z,2.60
2023-04-30T17:13:56.201Z,2.33
2023-04-30T17:16:23.441Z,2.25
2023-04-30T17:18:50.312Z,2.53
2023-04-30T17:21:17.070Z,2.25
2023-04-30T17:23:43.893Z,2.35
2023-04-30T17:26:10.809Z,2.40
2023-04-30T17:28:37.875Z,2.58
2023-04-30T17:31:07.661Z,2.88
2023-04-30T17:33:34.578Z,2.88
2023-04-30T17:36:02.957Z,3.35
2023-04-30T17:38:29.676Z,2.47
2023-04-30T17:40:57.851Z,2.85
2023-04-30T17:43:25.311Z,3.30
2023-04-30T17:45:56.387Z,3.10
2023-04-30T17:48:23.163Z,2.83
2023-04-30T17:50:57.147Z,2.50
2023-04-30T17:53:25.422Z,3.08
2023-04-30T17:56:06.748Z,2.90
2023-04-30T17:58:40.069Z,3.10
2023-04-30T18:01:12.340Z,2.90
2023-04-30T18:03:39.499Z,2.60
2023-04-30T18:06:18.421Z,2.92
2023-04-30T18:08:45.637Z,2.65
2023-04-30T18:11:13.218Z,2.53
2023-04-30T18:13:40.106Z,2.75
2023-04-30T18:16:08.372Z,3.08
2023-04-30T18:18:35.444Z,2.85
2023-04-30T18:21:02.549Z,2.65
2023-04-30T18:23:29.560Z,2.88
2023-04-30T18:28:43.263Z,3.00
2023-04-30T18:31:12.093Z,2.63
2023-04-30T18:33:38.929Z,3.17
2023-04-30T18:36:08.652Z,4.72
2023-04-30T18:38:35.455Z,3.33
2023-04-30T20:08:48.982Z,2.90
2023-04-30T20:11:15.803Z,2.28
2023-04-30T20:13:42.546Z,2.60
2023-04-30T20:16:12.721Z,2.83
2023-04-30T20:18:39.630Z,2.90
2023-04-30T20:21:06.493Z,3.45
2023-04-30T20:23:33.409Z,3.13
2023-04-30T20:26:00.313Z,2.90
2023-04-30T20:28:27.181Z,2.42
2023-04-30T20:30:54.280Z,2.88
2023-04-30T20:33:21.025Z,3.00
2023-04-30T20:35:47.809Z,2.38
2023-04-30T20:38:14.790Z,2.65
2023-04-30T20:40:41.890Z,2.58
2023-04-30T20:43:14.345Z,3.00
2023-04-30T20:45:44.973Z,2.80
2023-04-30T20:48:12.653Z,2.30
2023-04-30T20:50:41.376Z,2.53
2023-04-30T20:53:11.366Z,2.28
2023-04-30T20:55:38.501Z,2.90
2023-04-30T20:58:05.360Z,2.35
2023-04-30T21:00:32.610Z,2.72
2023-04-30T21:02:59.512Z,2.65
2023-04-30T21:05:28.675Z,2.58
2023-04-30T21:07:55.815Z,2.33
2023-04-30T21:10:22.662Z,2.70
2023-04-30T21:12:49.629Z,2.60
2023-04-30T21:15:16.731Z,2.75
2023-04-30T21:17:43.515Z,2.60
2023-04-30T21:20:10.946Z,2.70
2023-04-30T21:22:39.638Z,2.85
2023-04-30T21:25:07.511Z,2.70
2023-04-30T21:27:35.254Z,2.72
2023-04-30T21:30:02.360Z,2.55
2023-04-30T21:32:29.210Z,2.60
2023-04-30T21:34:58.817Z,2.42
2023-04-30T21:37:26.043Z,2.90
2023-04-30T21:39:54.591Z,2.88
2023-04-30T21:42:21.816Z,2.72
2023-04-30T21:44:49.921Z,2.58
2023-04-30T21:47:17.800Z,2.63
2023-04-30T21:49:44.781Z,3.33
2023-04-30T21:52:11.929Z,2.90
2023-04-30T21:54:38.954Z,2.38
2023-04-30T21:57:06.182Z,2.53
2023-04-30T21:59:35.524Z,2.85
2023-04-30T22:02:16.499Z,2.72
2023-04-30T22:04:49.370Z,2.58
2023-04-30T22:07:16.620Z,2.67
2023-04-30T22:09:44.546Z,2.40
2023-04-30T22:12:11.605Z,2.75
2023-04-30T22:14:39.096Z,3.00
2023-04-30T22:17:06.302Z,2.60
2023-04-30T22:19:33.164Z,2.90
2023-04-30T22:22:00.137Z,2.70
2023-04-30T22:24:26.970Z,3.00
2023-04-30T22:26:54.285Z,3.15
2023-04-30T22:29:21.217Z,3.13
2023-04-30T22:31:48.070Z,2.85
2023-04-30T22:34:17.001Z,3.17
2023-04-30T22:36:44.565Z,2.85
2023-04-30T22:39:12.063Z,2.90
2023-04-30T22:41:39.133Z,2.60
2023-04-30T22:44:06.115Z,2.83
2023-04-30T22:46:34.912Z,2.58
2023-04-30T22:49:01.876Z,3.03
2023-04-30T22:51:28.702Z,3.17
2023-04-30T22:53:56.578Z,2.58
2023-04-30T22:56:23.642Z,3.80
2023-04-30T22:58:50.384Z,3.28
2023-04-30T23:01:17.905Z,3.15
2023-04-30T23:03:44.706Z,2.78
2023-04-30T23:06:11.911Z,3.58
2023-04-30T23:08:38.928Z,3.17
2023-04-30T23:11:05.809Z,2.92
2023-04-30T23:13:32.739Z,3.75
2023-04-30T23:16:00.163Z,3.33
2023-04-30T23:18:28.421Z,3.95
2023-04-30T23:20:59.049Z,3.40
2023-04-30T23:23:27.175Z,3.53
2023-04-30T23:25:55.830Z,3.80
2023-04-30T23:28:24.784Z,3.30
2023-04-30T23:30:54.653Z,3.40
2023-04-30T23:33:21.956Z,3.67
2023-04-30T23:35:49.221Z,3.97
2023-04-30T23:38:16.587Z,3.97
2023-04-30T23:40:44.357Z,4.15
2023-04-30T23:43:11.814Z,3.42
2023-04-30T23:45:42.579Z,3.70
2023-04-30T23:48:10.651Z,3.60
2023-04-30T23:50:40.190Z,3.58
2023-04-30T23:53:08.540Z,3.42
2023-04-30T23:55:35.567Z,3.35
2023-04-30T23:58:02.614Z,3.50
